sensor_id;sensor_type;location;lat;lon;timestamp;pressure;altitude;pressure_sealevel;temperature;humidity
26443;BME280;5563;52.296;6.806;2023-04-05T00:01:09;102434.91;;;1.12;62.60
26443;BME280;5563;52.296;6.806;2023-04-05T00:03:44;102423.56;;;1.06;62.35
26443;BME280;5563;52.296;6.806;2023-04-05T00:06:20;102426.25;;;1.03;62.62
26443;BME280;5563;52.296;6.806;2023-04-05T00:09:08;102429.84;;;0.98;61.86
26443;BME280;5563;52.296;6.806;2023-04-05T00:11:42;102426.53;;;0.88;62.45
26443;BME280;5563;52.296;6.806;2023-04-05T00:14:15;102436.97;;;0.91;62.50
26443;BME280;5563;52.296;6.806;2023-04-05T00:16:49;102430.94;;;0.86;62.74
26443;BME280;5563;52.296;6.806;2023-04-05T00:19:22;102427.44;;;0.86;62.95
26443;BME280;5563;52.296;6.806;2023-04-05T00:21:49;102426.53;;;0.88;63.59
26443;BME280;5563;52.296;6.806;2023-04-05T00:24:22;102415.19;;;0.83;63.19
26443;BME280;5563;52.296;6.806;2023-04-05T00:26:50;102420.50;;;0.80;63.21
26443;BME280;5563;52.296;6.806;2023-04-05T00:29:23;102420.56;;;0.77;64.12
26443;BME280;5563;52.296;6.806;2023-04-05T00:31:50;102424.97;;;0.75;64.44
26443;BME280;5563;52.296;6.806;2023-04-05T00:34:23;102415.44;;;0.70;64.42
26443;BME280;5563;52.296;6.806;2023-04-05T00:36:57;102419.00;;;0.64;64.59
26443;BME280;5563;52.296;6.806;2023-04-05T00:39:24;102415.63;;;0.58;64.49
26443;BME280;5563;52.296;6.806;2023-04-05T00:41:57;102411.34;;;0.51;64.87
26443;BME280;5563;52.296;6.806;2023-04-05T00:44:31;102411.41;;;0.46;65.20
26443;BME280;5563;52.296;6.806;2023-04-05T00:47:07;102407.16;;;0.38;64.93
26443;BME280;5563;52.296;6.806;2023-04-05T00:49:35;102396.81;;;0.30;65.20
26443;BME280;5563;52.296;6.806;2023-04-05T00:52:08;102388.97;;;0.26;65.97
26443;BME280;5563;52.296;6.806;2023-04-05T00:54:35;102396.91;;;0.23;66.04
26443;BME280;5563;52.296;6.806;2023-04-05T00:57:18;102386.44;;;0.18;66.38
26443;BME280;5563;52.296;6.806;2023-04-05T00:59:45;102388.25;;;0.15;66.72
26443;BME280;5563;52.296;6.806;2023-04-05T01:02:33;102386.56;;;0.09;66.20
26443;BME280;5563;52.296;6.806;2023-04-05T01:05:07;102390.16;;;0.05;66.63
26443;BME280;5563;52.296;6.806;2023-04-05T01:08:06;102391.94;;;0.02;65.85
26443;BME280;5563;52.296;6.806;2023-04-05T01:10:43;102389.44;;;-0.08;66.47
26443;BME280;5563;52.296;6.806;2023-04-05T01:13:28;102397.34;;;-0.12;66.14
26443;BME280;5563;52.296;6.806;2023-04-05T01:16:01;102397.41;;;-0.17;66.40
26443;BME280;5563;52.296;6.806;2023-04-05T01:18:34;102390.50;;;-0.24;66.45
26443;BME280;5563;52.296;6.806;2023-04-05T01:26:41;102379.28;;;-0.35;65.84
26443;BME280;5563;52.296;6.806;2023-04-05T01:34:55;102381.13;;;-0.44;66.20
26443;BME280;5563;52.296;6.806;2023-04-05T01:37:31;102378.56;;;-0.47;66.30
26443;BME280;5563;52.296;6.806;2023-04-05T01:40:07;102374.22;;;-0.51;66.64
26443;BME280;5563;52.296;6.806;2023-04-05T01:42:35;102371.63;;;-0.53;66.58
26443;BME280;5563;52.296;6.806;2023-04-05T01:45:09;102363.84;;;-0.59;66.67
26443;BME280;5563;52.296;6.806;2023-04-05T01:47:36;102359.56;;;-0.69;66.93
26443;BME280;5563;52.296;6.806;2023-04-05T01:50:10;102373.53;;;-0.67;66.82
26443;BME280;5563;52.296;6.806;2023-04-05T01:52:37;102371.78;;;-0.66;67.07
26443;BME280;5563;52.296;6.806;2023-04-05T01:55:10;102367.44;;;-0.69;67.17
26443;BME280;5563;52.296;6.806;2023-04-05T01:57:37;102365.75;;;-0.74;67.17
26443;BME280;5563;52.296;6.806;2023-04-05T02:00:05;102363.97;;;-0.72;67.77
26443;BME280;5563;52.296;6.806;2023-04-05T02:02:38;102364.91;;;-0.75;67.67
26443;BME280;5563;52.296;6.806;2023-04-05T02:05:06;102358.84;;;-0.80;68.07
26443;BME280;5563;52.296;6.806;2023-04-05T02:07:39;102363.22;;;-0.82;68.13
26443;BME280;5563;52.296;6.806;2023-04-05T02:10:06;102366.75;;;-0.86;68.12
26443;BME280;5563;52.296;6.806;2023-04-05T02:12:40;102360.69;;;-0.89;68.29
26443;BME280;5563;52.296;6.806;2023-04-05T02:15:13;102358.09;;;-0.94;68.05
26443;BME280;5563;52.296;6.806;2023-04-05T02:17:47;102353.78;;;-0.98;68.26
26443;BME280;5563;52.296;6.806;2023-04-05T02:20:14;102360.72;;;-0.95;68.15
26443;BME280;5563;52.296;6.806;2023-04-05T02:22:47;102358.09;;;-0.95;68.37
26443;BME280;5563;52.296;6.806;2023-04-05T02:25:14;102353.75;;;-0.95;67.78
26443;BME280;5563;52.296;6.806;2023-04-05T02:27:47;102337.25;;;-1.04;68.21
26443;BME280;5563;52.296;6.806;2023-04-05T02:30:14;102325.94;;;-1.08;68.37
26443;BME280;5563;52.296;6.806;2023-04-05T02:32:48;102327.69;;;-1.05;68.34
26443;BME280;5563;52.296;6.806;2023-04-05T02:35:21;102352.06;;;-1.00;68.24
26443;BME280;5563;52.296;6.806;2023-04-05T02:37:49;102346.00;;;-1.05;68.28
26443;BME280;5563;52.296;6.806;2023-04-05T02:40:16;102335.56;;;-1.12;68.39
26443;BME280;5563;52.296;6.806;2023-04-05T02:42:50;102351.28;;;-1.10;68.29
26443;BME280;5563;52.296;6.806;2023-04-05T02:45:23;102342.59;;;-1.12;68.67
26443;BME280;5563;52.296;6.806;2023-04-05T02:47:57;102348.69;;;-1.13;69.04
26443;BME280;5563;52.296;6.806;2023-04-05T02:50:30;102344.38;;;-1.20;68.28
26443;BME280;5563;52.296;6.806;2023-04-05T02:52:57;102343.50;;;-1.21;68.11
26443;BME280;5563;52.296;6.806;2023-04-05T02:55:30;102342.69;;;-1.23;68.04
26443;BME280;5563;52.296;6.806;2023-04-05T02:58:06;102353.09;;;-1.18;67.85
26443;BME280;5563;52.296;6.806;2023-04-05T03:00:34;102333.09;;;-1.27;68.52
26443;BME280;5563;52.296;6.806;2023-04-05T03:03:08;102340.91;;;-1.24;68.61
26443;BME280;5563;52.296;6.806;2023-04-05T03:05:41;102330.47;;;-1.25;68.82
26443;BME280;5563;52.296;6.806;2023-04-05T03:08:15;102334.84;;;-1.27;68.54
26443;BME280;5563;52.296;6.806;2023-04-05T03:10:58;102342.69;;;-1.27;68.80
26443;BME280;5563;52.296;6.806;2023-04-05T03:13:38;102325.38;;;-1.39;68.84
26443;BME280;5563;52.296;6.806;2023-04-05T03:16:11;102331.47;;;-1.41;69.30
26443;BME280;5563;52.296;6.806;2023-04-05T03:18:44;102335.00;;;-1.42;69.38
26443;BME280;5563;52.296;6.806;2023-04-05T03:21:18;102344.63;;;-1.49;69.52
26443;BME280;5563;52.296;6.806;2023-04-05T03:23:51;102335.94;;;-1.49;69.96
26443;BME280;5563;52.296;6.806;2023-04-05T03:26:18;102340.31;;;-1.53;69.91
26443;BME280;5563;52.296;6.806;2023-04-05T03:28:51;102329.00;;;-1.58;70.40
26443;BME280;5563;52.296;6.806;2023-04-05T03:31:18;102324.69;;;-1.63;70.17
26443;BME280;5563;52.296;6.806;2023-04-05T03:33:51;102331.66;;;-1.64;70.48
26443;BME280;5563;52.296;6.806;2023-04-05T03:36:18;102313.44;;;-1.73;70.46
26443;BME280;5563;52.296;6.806;2023-04-05T03:38:51;102325.63;;;-1.73;70.65
26443;BME280;5563;52.296;6.806;2023-04-05T03:41:18;102323.03;;;-1.75;70.73
26443;BME280;5563;52.296;6.806;2023-04-05T03:43:51;102327.38;;;-1.75;71.00
26443;BME280;5563;52.296;6.806;2023-04-05T03:46:18;102329.13;;;-1.77;70.92
26443;BME280;5563;52.296;6.806;2023-04-05T03:48:51;102317.88;;;-1.85;70.64
26443;BME280;5563;52.296;6.806;2023-04-05T03:51:18;102323.09;;;-1.85;70.88
26443;BME280;5563;52.296;6.806;2023-04-05T03:53:51;102324.00;;;-1.86;71.36
26443;BME280;5563;52.296;6.806;2023-04-05T03:56:24;102323.16;;;-1.90;71.75
26443;BME280;5563;52.296;6.806;2023-04-05T03:58:58;102319.69;;;-1.93;71.51
26443;BME280;5563;52.296;6.806;2023-04-05T04:01:25;102309.25;;;-1.99;71.36
26443;BME280;5563;52.296;6.806;2023-04-05T04:03:52;102305.78;;;-2.01;71.45
26443;BME280;5563;52.296;6.806;2023-04-05T04:06:25;102326.69;;;-1.97;71.54
26443;BME280;5563;52.296;6.806;2023-04-05T04:08:52;102325.75;;;-1.91;72.04
26443;BME280;5563;52.296;6.806;2023-04-05T04:11:32;102314.41;;;-1.89;71.48
26443;BME280;5563;52.296;6.806;2023-04-05T04:14:12;102317.03;;;-1.90;71.47
26443;BME280;5563;52.296;6.806;2023-04-05T04:16:45;102306.63;;;-1.93;71.50
26443;BME280;5563;52.296;6.806;2023-04-05T04:19:12;102321.41;;;-1.94;71.62
26443;BME280;5563;52.296;6.806;2023-04-05T04:21:45;102317.03;;;-1.90;71.30
26443;BME280;5563;52.296;6.806;2023-04-05T04:24:17;102316.16;;;-1.86;71.76
26443;BME280;5563;52.296;6.806;2023-04-05T04:26:51;102298.75;;;-1.92;71.58
26443;BME280;5563;52.296;6.806;2023-04-05T04:29:20;102309.22;;;-1.95;72.02
26443;BME280;5563;52.296;6.806;2023-04-05T04:32:03;102295.31;;;-2.00;72.25
26443;BME280;5563;52.296;6.806;2023-04-05T04:34:32;102296.22;;;-2.02;72.25
26443;BME280;5563;52.296;6.806;2023-04-05T04:37:06;102302.28;;;-2.02;72.46
26443;BME280;5563;52.296;6.806;2023-04-05T04:39:33;102297.97;;;-2.07;72.70
26443;BME280;5563;52.296;6.806;2023-04-05T04:42:06;102301.50;;;-2.11;72.91
26443;BME280;5563;52.296;6.806;2023-04-05T04:44:44;102298.03;;;-2.15;72.94
26443;BME280;5563;52.296;6.806;2023-04-05T04:47:11;102272.88;;;-2.34;73.06
26443;BME280;5563;52.296;6.806;2023-04-05T04:49:53;102297.19;;;-2.22;73.12
26443;BME280;5563;52.296;6.806;2023-04-05T04:52:20;102296.34;;;-2.24;73.17
26443;BME280;5563;52.296;6.806;2023-04-05T04:54:53;102297.16;;;-2.17;73.27
26443;BME280;5563;52.296;6.806;2023-04-05T04:57:26;102289.34;;;-2.18;73.42
26443;BME280;5563;52.296;6.806;2023-04-05T04:59:59;102299.78;;;-2.17;73.24
26443;BME280;5563;52.296;6.806;2023-04-05T05:02:33;102296.28;;;-2.14;73.46
26443;BME280;5563;52.296;6.806;2023-04-05T05:05:07;102301.50;;;-2.13;73.41
26443;BME280;5563;52.296;6.806;2023-04-05T05:07:34;102297.16;;;-2.17;73.72
26443;BME280;5563;52.296;6.806;2023-04-05T05:10:02;102301.53;;;-2.21;73.61
26443;BME280;5563;52.296;6.806;2023-04-05T05:12:43;102302.44;;;-2.20;73.29
26443;BME280;5563;52.296;6.806;2023-04-05T05:15:11;102294.56;;;-2.22;73.55
26443;BME280;5563;52.296;6.806;2023-04-05T05:17:44;102295.44;;;-2.21;73.73
26443;BME280;5563;52.296;6.806;2023-04-05T05:20:11;102304.19;;;-2.24;73.66
26443;BME280;5563;52.296;6.806;2023-04-05T05:22:44;102273.78;;;-2.43;73.23
26443;BME280;5563;52.296;6.806;2023-04-05T05:25:12;102301.59;;;-2.28;73.40
26443;BME280;5563;52.296;6.806;2023-04-05T05:27:49;102286.81;;;-2.35;73.54
26443;BME280;5563;52.296;6.806;2023-04-05T05:30:17;102279.00;;;-2.37;73.74
26443;BME280;5563;52.296;6.806;2023-04-05T05:32:51;102303.28;;;-2.23;73.44
26443;BME280;5563;52.296;6.806;2023-04-05T05:35:24;102284.19;;;-2.29;73.49
26443;BME280;5563;52.296;6.806;2023-04-05T05:37:51;102278.94;;;-2.28;73.50
26443;BME280;5563;52.296;6.806;2023-04-05T05:40:25;102298.91;;;-2.17;73.39
26443;BME280;5563;52.296;6.806;2023-04-05T05:42:52;102289.34;;;-2.17;73.40
26443;BME280;5563;52.296;6.806;2023-04-05T05:45:25;102294.53;;;-2.14;72.84
26443;BME280;5563;52.296;6.806;2023-04-05T05:47:52;102291.06;;;-2.11;72.82
26443;BME280;5563;52.296;6.806;2023-04-05T05:50:26;102291.91;;;-2.08;72.73
26443;BME280;5563;52.296;6.806;2023-04-05T05:52:53;102292.75;;;-2.04;72.10
26443;BME280;5563;52.296;6.806;2023-04-05T05:55:27;102294.44;;;-1.97;72.24
26443;BME280;5563;52.296;6.806;2023-04-05T05:57:54;102304.84;;;-1.90;72.65
26443;BME280;5563;52.296;6.806;2023-04-05T06:00:27;102301.31;;;-1.84;71.49
26443;BME280;5563;52.296;6.806;2023-04-05T06:02:54;102294.31;;;-1.82;71.63
26443;BME280;5563;52.296;6.806;2023-04-05T06:05:27;102296.88;;;-1.73;71.88
26443;BME280;5563;52.296;6.806;2023-04-05T06:07:54;102295.97;;;-1.68;71.64
26443;BME280;5563;52.296;6.806;2023-04-05T06:10:29;102293.31;;;-1.63;71.89
26443;BME280;5563;52.296;6.806;2023-04-05T06:12:56;102285.41;;;-1.57;72.07
26443;BME280;5563;52.296;6.806;2023-04-05T06:15:36;102284.44;;;-1.44;71.72
26443;BME280;5563;52.296;6.806;2023-04-05T06:18:10;102286.09;;;-1.36;71.25
26443;BME280;5563;52.296;6.806;2023-04-05T06:20:43;102286.03;;;-1.27;70.90
26443;BME280;5563;52.296;6.806;2023-04-05T06:23:17;102285.91;;;-1.16;70.19
26443;BME280;5563;52.296;6.806;2023-04-05T06:25:50;102288.38;;;-1.02;70.12
26443;BME280;5563;52.296;6.806;2023-04-05T06:28:17;102291.75;;;-0.91;69.75
26443;BME280;5563;52.296;6.806;2023-04-05T06:30:44;102291.63;;;-0.81;70.07
26443;BME280;5563;52.296;6.806;2023-04-05T06:33:17;102293.19;;;-0.65;69.94
26443;BME280;5563;52.296;6.806;2023-04-05T06:35:45;102282.66;;;-0.59;70.21
26443;BME280;5563;52.296;6.806;2023-04-05T06:38:21;102296.44;;;-0.45;69.26
26443;BME280;5563;52.296;6.806;2023-04-05T06:40:48;102277.16;;;-0.39;68.75
26443;BME280;5563;52.296;6.806;2023-04-05T06:43:21;102280.50;;;-0.30;68.25
26443;BME280;5563;52.296;6.806;2023-04-05T06:45:48;102292.47;;;-0.11;68.24
26443;BME280;5563;52.296;6.806;2023-04-05T06:48:21;102287.91;;;0.05;68.19
26443;BME280;5563;52.296;6.806;2023-04-05T06:50:58;102281.66;;;0.12;68.30
26443;BME280;5563;52.296;6.806;2023-04-05T06:53:31;102285.81;;;0.25;67.93
26443;BME280;5563;52.296;6.806;2023-04-05T06:55:58;102289.06;;;0.42;68.15
26443;BME280;5563;52.296;6.806;2023-04-05T06:58:32;102293.16;;;0.58;67.63
26443;BME280;5563;52.296;6.806;2023-04-05T07:00:59;102282.50;;;0.66;68.01
26443;BME280;5563;52.296;6.806;2023-04-05T07:03:33;102289.19;;;0.85;67.18
26443;BME280;5563;52.296;6.806;2023-04-05T07:06:07;102285.47;;;0.96;67.02
26443;BME280;5563;52.296;6.806;2023-04-05T07:08:35;102289.53;;;1.13;67.54
26443;BME280;5563;52.296;6.806;2023-04-05T07:11:08;102283.97;;;1.29;66.76
26443;BME280;5563;52.296;6.806;2023-04-05T07:13:48;102284.47;;;1.46;66.29
26443;BME280;5563;52.296;6.806;2023-04-05T07:16:21;102283.31;;;1.61;65.75
26443;BME280;5563;52.296;6.806;2023-04-05T07:18:49;102285.56;;;1.77;65.65
26443;BME280;5563;52.296;6.806;2023-04-05T07:21:23;102280.81;;;1.94;65.05
26443;BME280;5563;52.296;6.806;2023-04-05T07:23:50;102293.53;;;2.12;64.79
26443;BME280;5563;52.296;6.806;2023-04-05T07:26:25;102288.81;;;2.27;64.01
26443;BME280;5563;52.296;6.806;2023-04-05T07:28:59;102286.59;;;2.45;64.19
26443;BME280;5563;52.296;6.806;2023-04-05T07:31:33;102274.00;;;2.58;63.92
26443;BME280;5563;52.296;6.806;2023-04-05T07:34:00;102271.03;;;2.70;63.32
26443;BME280;5563;52.296;6.806;2023-04-05T07:36:34;102277.59;;;2.89;62.55
26443;BME280;5563;52.296;6.806;2023-04-05T07:39:07;102278.91;;;3.05;61.92
26443;BME280;5563;52.296;6.806;2023-04-05T07:41:34;102279.25;;;3.23;61.13
26443;BME280;5563;52.296;6.806;2023-04-05T07:44:09;102277.88;;;3.41;61.33
26443;BME280;5563;52.296;6.806;2023-04-05T07:46:42;102269.03;;;3.44;60.56
26443;BME280;5563;52.296;6.806;2023-04-05T07:49:23;102259.88;;;3.55;60.08
26443;BME280;5563;52.296;6.806;2023-04-05T07:51:53;102276.91;;;3.74;59.65
26443;BME280;5563;52.296;6.806;2023-04-05T07:54:30;102259.16;;;3.79;60.12
26443;BME280;5563;52.296;6.806;2023-04-05T07:56:57;102269.22;;;3.94;58.96
26443;BME280;5563;52.296;6.806;2023-04-05T07:59:30;102282.78;;;4.11;58.99
26443;BME280;5563;52.296;6.806;2023-04-05T08:01:57;102268.59;;;4.14;58.19
26443;BME280;5563;52.296;6.806;2023-04-05T08:04:40;102275.00;;;4.34;57.07
26443;BME280;5563;52.296;6.806;2023-04-05T08:07:08;102281.53;;;4.49;55.56
26443;BME280;5563;52.296;6.806;2023-04-05T08:09:41;102261.16;;;4.53;55.51
26443;BME280;5563;52.296;6.806;2023-04-05T08:12:08;102278.13;;;4.72;54.84
26443;BME280;5563;52.296;6.806;2023-04-05T08:14:55;102251.44;;;4.79;54.83
26443;BME280;5563;52.296;6.806;2023-04-05T08:17:22;102266.88;;;4.91;55.29
26443;BME280;5563;52.296;6.806;2023-04-05T08:19:58;102271.81;;;5.02;55.04
26443;BME280;5563;52.296;6.806;2023-04-05T08:22:28;102269.84;;;5.07;54.55
26443;BME280;5563;52.296;6.806;2023-04-05T08:25:01;102263.38;;;5.15;55.05
26443;BME280;5563;52.296;6.806;2023-04-05T08:27:34;102268.16;;;5.29;53.02
26443;BME280;5563;52.296;6.806;2023-04-05T08:30:01;102270.47;;;5.38;52.25
26443;BME280;5563;52.296;6.806;2023-04-05T08:32:35;102266.56;;;5.48;53.14
26443;BME280;5563;52.296;6.806;2023-04-05T08:35:02;102270.34;;;5.64;52.43
26443;BME280;5563;52.296;6.806;2023-04-05T08:37:36;102262.88;;;5.75;51.29
26443;BME280;5563;52.296;6.806;2023-04-05T08:40:04;102271.28;;;5.86;50.59
26443;BME280;5563;52.296;6.806;2023-04-05T08:42:45;102266.56;;;5.94;49.99
26443;BME280;5563;52.296;6.806;2023-04-05T08:45:18;102259.34;;;5.98;49.69
26443;BME280;5563;52.296;6.806;2023-04-05T08:47:52;102267.06;;;6.04;47.35
26443;BME280;5563;52.296;6.806;2023-04-05T08:50:26;102267.06;;;6.04;47.21
26443;BME280;5563;52.296;6.806;2023-04-05T08:53:00;102264.88;;;6.15;48.50
26443;BME280;5563;52.296;6.806;2023-04-05T08:55:27;102258.38;;;6.43;48.37
26443;BME280;5563;52.296;6.806;2023-04-05T08:58:02;102252.34;;;6.62;47.17
26443;BME280;5563;52.296;6.806;2023-04-05T09:00:33;102251.25;;;6.66;45.54
26443;BME280;5563;52.296;6.806;2023-04-05T09:03:07;102241.38;;;6.69;46.23
26443;BME280;5563;52.296;6.806;2023-04-05T09:05:39;102251.84;;;6.92;47.38
26443;BME280;5563;52.296;6.806;2023-04-05T09:08:15;102251.28;;;7.06;44.68
26443;BME280;5563;52.296;6.806;2023-04-05T09:10:43;102259.03;;;7.10;43.63
26443;BME280;5563;52.296;6.806;2023-04-05T09:13:09;102244.69;;;7.14;42.62
26443;BME280;5563;52.296;6.806;2023-04-05T09:15:43;102252.25;;;7.23;44.64
26443;BME280;5563;52.296;6.806;2023-04-05T09:18:10;102240.78;;;7.41;43.38
26443;BME280;5563;52.296;6.806;2023-04-05T09:21:05;102258.84;;;7.53;41.39
26443;BME280;5563;52.296;6.806;2023-04-05T09:23:36;102244.63;;;7.73;43.52
26443;BME280;5563;52.296;6.806;2023-04-05T09:26:20;102252.06;;;8.02;43.11
26443;BME280;5563;52.296;6.806;2023-04-05T09:28:47;102258.06;;;8.43;42.81
26443;BME280;5563;52.296;6.806;2023-04-05T09:31:31;102250.34;;;8.90;41.49
26443;BME280;5563;52.296;6.806;2023-04-05T09:34:03;102246.66;;;9.42;41.35
26443;BME280;5563;52.296;6.806;2023-04-05T09:36:42;102227.56;;;9.98;39.25
26443;BME280;5563;52.296;6.806;2023-04-05T09:39:10;102244.09;;;10.35;39.58
26443;BME280;5563;52.296;6.806;2023-04-05T09:42:09;102240.75;;;10.61;39.95
26443;BME280;5563;52.296;6.806;2023-04-05T09:44:58;102244.66;;;10.40;38.45
26443;BME280;5563;52.296;6.806;2023-04-05T09:47:34;102224.50;;;10.50;39.59
26443;BME280;5563;52.296;6.806;2023-04-05T09:52:48;102241.47;;;11.23;37.19
26443;BME280;5563;52.296;6.806;2023-04-05T09:55:26;102238.31;;;11.30;36.92
26443;BME280;5563;52.296;6.806;2023-04-05T09:58:00;102231.94;;;11.47;37.33
26443;BME280;5563;52.296;6.806;2023-04-05T10:00:28;102234.91;;;11.56;36.04
26443;BME280;5563;52.296;6.806;2023-04-05T10:03:05;102234.69;;;11.31;35.21
26443;BME280;5563;52.296;6.806;2023-04-05T10:05:32;102223.91;;;11.19;35.56
26443;BME280;5563;52.296;6.806;2023-04-05T10:08:05;102214.28;;;11.16;34.92
26443;BME280;5563;52.296;6.806;2023-04-05T10:10:45;102219.81;;;11.41;34.47
26443;BME280;5563;52.296;6.806;2023-04-05T10:13:19;102218.22;;;11.67;34.95
26443;BME280;5563;52.296;6.806;2023-04-05T10:16:01;102223.31;;;11.98;34.80
26443;BME280;5563;52.296;6.806;2023-04-05T10:18:38;102208.53;;;12.19;35.35
26443;BME280;5563;52.296;6.806;2023-04-05T10:21:14;102217.97;;;12.64;33.98
26443;BME280;5563;52.296;6.806;2023-04-05T10:24:00;102203.84;;;12.62;32.93
26443;BME280;5563;52.296;6.806;2023-04-05T10:26:47;102200.34;;;12.74;31.05
26443;BME280;5563;52.296;6.806;2023-04-05T10:29:20;102207.47;;;12.48;31.49
26443;BME280;5563;52.296;6.806;2023-04-05T10:32:00;102206.41;;;12.24;31.83
26443;BME280;5563;52.296;6.806;2023-04-05T10:34:52;102210.09;;;12.09;32.08
26443;BME280;5563;52.296;6.806;2023-04-05T10:40:08;102206.44;;;12.37;31.97
26443;BME280;5563;52.296;6.806;2023-04-05T10:42:45;102197.97;;;12.57;31.81
26443;BME280;5563;52.296;6.806;2023-04-05T10:45:16;102203.88;;;12.74;30.80
26443;BME280;5563;52.296;6.806;2023-04-05T10:48:08;102188.22;;;12.68;31.54
26443;BME280;5563;52.296;6.806;2023-04-05T10:50:43;102185.91;;;12.76;31.35
26443;BME280;5563;52.296;6.806;2023-04-05T10:53:20;102182.16;;;12.91;31.68
26443;BME280;5563;52.296;6.806;2023-04-05T10:55:49;102179.47;;;12.91;31.06
26443;BME280;5563;52.296;6.806;2023-04-05T10:58:24;102188.44;;;12.65;30.92
26443;BME280;5563;52.296;6.806;2023-04-05T11:00:52;102168.78;;;12.66;30.56
26443;BME280;5563;52.296;6.806;2023-04-05T11:03:49;102184.63;;;12.82;31.92
26443;BME280;5563;52.296;6.806;2023-04-05T11:06:25;102168.34;;;12.97;31.06
26443;BME280;5563;52.296;6.806;2023-04-05T11:09:17;102181.66;;;13.12;30.54
26443;BME280;5563;52.296;6.806;2023-04-05T11:11:49;102184.31;;;13.37;30.99
26443;BME280;5563;52.296;6.806;2023-04-05T11:14:36;102176.31;;;13.12;29.13
26443;BME280;5563;52.296;6.806;2023-04-05T11:17:23;102177.88;;;12.89;29.76
26443;BME280;5563;52.296;6.806;2023-04-05T11:20:03;102168.66;;;12.68;30.74
26443;BME280;5563;52.296;6.806;2023-04-05T11:22:31;102174.53;;;12.60;29.48
26443;BME280;5563;52.296;6.806;2023-04-05T11:25:05;102156.63;;;12.48;29.90
26443;BME280;5563;52.296;6.806;2023-04-05T11:27:33;102148.25;;;12.40;29.53
26443;BME280;5563;52.296;6.806;2023-04-05T11:30:10;102162.22;;;12.70;31.19
26443;BME280;5563;52.296;6.806;2023-04-05T11:35:17;102153.03;;;13.37;29.26
26443;BME280;5563;52.296;6.806;2023-04-05T11:38:04;102154.19;;;13.46;29.54
26443;BME280;5563;52.296;6.806;2023-04-05T11:40:39;102153.34;;;13.45;30.00
26443;BME280;5563;52.296;6.806;2023-04-05T11:43:12;102151.97;;;13.15;29.57
26443;BME280;5563;52.296;6.806;2023-04-05T11:45:40;102147.91;;;12.96;29.52
26443;BME280;5563;52.296;6.806;2023-04-05T11:48:16;102150.34;;;12.87;29.92
26443;BME280;5563;52.296;6.806;2023-04-05T11:50:44;102153.97;;;12.48;30.78
26443;BME280;5563;52.296;6.806;2023-04-05T11:53:19;102150.72;;;12.31;30.99
26443;BME280;5563;52.296;6.806;2023-04-05T11:55:49;102147.09;;;12.44;30.96
26443;BME280;5563;52.296;6.806;2023-04-05T11:58:23;102135.78;;;12.53;30.46
26443;BME280;5563;52.296;6.806;2023-04-05T12:01:01;102136.06;;;12.49;29.83
26443;BME280;5563;52.296;6.806;2023-04-05T12:03:36;102127.59;;;12.30;29.46
26443;BME280;5563;52.296;6.806;2023-04-05T12:06:09;102114.09;;;11.79;29.49
26443;BME280;5563;52.296;6.806;2023-04-05T12:08:44;102131.94;;;11.79;30.17
26443;BME280;5563;52.296;6.806;2023-04-05T12:11:26;102122.78;;;11.69;30.24
26443;BME280;5563;52.296;6.806;2023-04-05T12:14:06;102104.19;;;11.94;30.74
26443;BME280;5563;52.296;6.806;2023-04-05T12:16:33;102118.00;;;12.40;30.71
26443;BME280;5563;52.296;6.806;2023-04-05T12:19:07;102111.78;;;12.39;28.76
26443;BME280;5563;52.296;6.806;2023-04-05T12:21:40;102122.28;;;12.42;29.56
26443;BME280;5563;52.296;6.806;2023-04-05T12:24:07;102118.13;;;12.63;28.75
26443;BME280;5563;52.296;6.806;2023-04-05T12:26:41;102111.34;;;12.45;28.80
26443;BME280;5563;52.296;6.806;2023-04-05T12:29:15;102099.94;;;12.43;28.70
26443;BME280;5563;52.296;6.806;2023-04-05T12:31:49;102120.69;;;12.77;29.38
26443;BME280;5563;52.296;6.806;2023-04-05T12:34:23;102104.09;;;12.97;28.49
26443;BME280;5563;52.296;6.806;2023-04-05T12:37:00;102116.31;;;13.27;28.85
26443;BME280;5563;52.296;6.806;2023-04-05T12:39:28;102115.41;;;13.39;27.79
26443;BME280;5563;52.296;6.806;2023-04-05T12:42:05;102117.47;;;13.35;27.21
26443;BME280;5563;52.296;6.806;2023-04-05T12:44:32;102109.34;;;13.12;26.99
26443;BME280;5563;52.296;6.806;2023-04-05T12:47:07;102101.84;;;13.17;27.18
26443;BME280;5563;52.296;6.806;2023-04-05T12:49:42;102084.28;;;13.13;27.00
26443;BME280;5563;52.296;6.806;2023-04-05T12:52:18;102094.78;;;13.16;27.23
26443;BME280;5563;52.296;6.806;2023-04-05T12:54:53;102058.41;;;13.37;28.38
26443;BME280;5563;52.296;6.806;2023-04-05T12:57:31;102071.94;;;13.82;29.25
26443;BME280;5563;52.296;6.806;2023-04-05T12:59:58;102053.78;;;13.86;26.42
26443;BME280;5563;52.296;6.806;2023-04-05T13:02:31;102069.69;;;14.00;27.47
26443;BME280;5563;52.296;6.806;2023-04-05T13:04:59;102067.88;;;14.00;27.43
26443;BME280;5563;52.296;6.806;2023-04-05T13:07:32;102056.84;;;14.16;27.22
26443;BME280;5563;52.296;6.806;2023-04-05T13:10:00;102054.53;;;14.12;26.30
26443;BME280;5563;52.296;6.806;2023-04-05T13:12:33;102054.28;;;13.80;26.20
26443;BME280;5563;52.296;6.806;2023-04-05T13:15:15;102053.97;;;13.48;27.10
26443;BME280;5563;52.296;6.806;2023-04-05T13:17:48;102054.72;;;13.50;26.04
26443;BME280;5563;52.296;6.806;2023-04-05T13:20:17;102043.66;;;13.55;26.52
26443;BME280;5563;52.296;6.806;2023-04-05T13:22:51;102062.75;;;13.74;25.88
26443;BME280;5563;52.296;6.806;2023-04-05T13:25:18;102029.91;;;13.59;25.82
26443;BME280;5563;52.296;6.806;2023-04-05T13:27:52;102041.63;;;13.93;27.24
26443;BME280;5563;52.296;6.806;2023-04-05T13:30:25;102020.56;;;13.99;25.44
26443;BME280;5563;52.296;6.806;2023-04-05T13:32:53;102028.34;;;13.91;26.29
26443;BME280;5563;52.296;6.806;2023-04-05T13:35:27;102041.31;;;13.74;25.34
26443;BME280;5563;52.296;6.806;2023-04-05T13:37:54;102025.56;;;13.69;25.15
26443;BME280;5563;52.296;6.806;2023-04-05T13:40:30;102021.63;;;13.62;25.68
26443;BME280;5563;52.296;6.806;2023-04-05T13:42:57;102026.38;;;13.59;25.35
26443;BME280;5563;52.296;6.806;2023-04-05T13:45:31;102016.00;;;13.78;26.12
26443;BME280;5563;52.296;6.806;2023-04-05T13:47:58;102019.19;;;13.83;26.45
26443;BME280;5563;52.296;6.806;2023-04-05T13:50:33;102002.94;;;13.73;25.41
26443;BME280;5563;52.296;6.806;2023-04-05T13:53:00;102014.31;;;13.88;24.73